createdAt,value
2022-10-18T00:01:10.057Z,10.58
2022-10-18T00:03:46.571Z,10.57
2022-10-18T00:06:18.689Z,10.54
2022-10-18T00:08:50.769Z,10.52
2022-10-18T00:11:23.381Z,10.51
2022-10-18T00:13:56.909Z,10.46
2022-10-18T00:16:29.106Z,10.38
2022-10-18T00:19:01.232Z,10.30
2022-10-18T00:21:33.416Z,10.24
2022-10-18T00:24:08.265Z,10.19
2022-10-18T00:26:40.357Z,10.19
2022-10-18T00:29:16.876Z,10.18
2022-10-18T00:31:49.025Z,10.17
2022-10-18T00:34:21.117Z,10.16
2022-10-18T00:36:53.220Z,10.17
2022-10-18T00:39:25.641Z,10.17
2022-10-18T00:41:57.770Z,10.15
2022-10-18T00:45:04.222Z,10.11
2022-10-18T00:47:38.021Z,10.05
2022-10-18T00:50:11.724Z,9.98
2022-10-18T00:52:47.162Z,9.96
2022-10-18T00:55:19.556Z,9.93
2022-10-18T00:57:52.483Z,9.90
2022-10-18T01:00:24.900Z,9.86
2022-10-18T01:02:57.456Z,9.83
2022-10-18T01:05:29.932Z,9.81
2022-10-18T01:08:46.849Z,9.80
2022-10-18T01:11:52.433Z,9.78
2022-10-18T01:14:39.902Z,9.78
2022-10-18T01:17:19.464Z,9.81
2022-10-18T01:20:20.933Z,9.82
2022-10-18T01:22:58.596Z,9.83
2022-10-18T01:25:48.004Z,9.79
2022-10-18T01:28:33.361Z,9.78
2022-10-18T01:31:08.184Z,9.77
2022-10-18T01:33:44.253Z,9.72
2022-10-18T01:36:22.452Z,9.74
2022-10-18T01:38:58.781Z,9.73
2022-10-18T01:41:31.592Z,9.72
2022-10-18T01:44:08.057Z,9.68
2022-10-18T01:46:41.181Z,9.66
2022-10-18T01:49:13.265Z,9.66
2022-10-18T01:51:45.327Z,9.63
2022-10-18T01:54:23.502Z,9.61
2022-10-18T01:56:59.876Z,9.59
2022-10-18T01:59:41.063Z,9.57
2022-10-18T02:02:26.415Z,9.56
2022-10-18T02:05:04.672Z,9.52
2022-10-18T02:07:43.814Z,9.51
2022-10-18T02:10:19.966Z,9.43
2022-10-18T02:12:55.393Z,9.41
2022-10-18T02:15:31.395Z,9.44
2022-10-18T02:18:06.982Z,9.42
2022-10-18T02:20:40.080Z,9.41
2022-10-18T02:23:15.421Z,9.41
2022-10-18T02:25:47.805Z,9.40
2022-10-18T02:28:20.290Z,9.37
2022-10-18T02:31:00.274Z,9.35
2022-10-18T02:33:39.445Z,9.34
2022-10-18T02:36:16.610Z,9.31
2022-10-18T02:38:49.592Z,9.28
2022-10-18T02:41:27.731Z,9.23
2022-10-18T02:43:59.874Z,9.25
2022-10-18T02:46:32.025Z,9.23
2022-10-18T02:49:04.341Z,9.21
2022-10-18T02:51:36.477Z,9.22
2022-10-18T02:54:09.611Z,9.23
2022-10-18T02:56:41.812Z,9.22
2022-10-18T02:59:14.285Z,9.15
2022-10-18T03:01:46.475Z,9.19
2022-10-18T03:04:18.647Z,9.14
2022-10-18T03:06:50.778Z,9.16
2022-10-18T03:09:22.936Z,9.13
2022-10-18T03:11:55.048Z,9.05
2022-10-18T03:14:27.314Z,8.93
2022-10-18T03:16:59.435Z,8.88
2022-10-18T03:19:31.852Z,8.92
2022-10-18T03:22:04.000Z,8.92
2022-10-18T03:24:36.286Z,8.89
2022-10-18T03:27:08.384Z,8.92
2022-10-18T03:29:40.780Z,8.88
2022-10-18T03:32:12.892Z,8.89
2022-10-18T03:34:45.014Z,8.86
2022-10-18T03:37:17.564Z,8.89
2022-10-18T03:39:49.792Z,8.92
2022-10-18T03:42:22.261Z,8.91
2022-10-18T03:44:54.465Z,8.93
2022-10-18T03:47:26.652Z,8.94
2022-10-18T03:50:00.137Z,8.96
2022-10-18T03:52:32.619Z,8.92
2022-10-18T03:55:05.331Z,9.00
2022-10-18T03:57:37.441Z,9.00
2022-10-18T04:00:12.711Z,8.98
2022-10-18T04:02:44.825Z,8.97
2022-10-18T04:05:17.047Z,8.91
2022-10-18T04:07:49.549Z,8.89
2022-10-18T04:10:21.789Z,8.91
2022-10-18T04:12:54.023Z,8.85
2022-10-18T04:15:26.104Z,8.82
2022-10-18T04:17:58.520Z,8.83
2022-10-18T04:20:30.766Z,8.82
2022-10-18T04:23:03.048Z,8.77
2022-10-18T04:25:35.287Z,8.68
2022-10-18T04:28:07.702Z,8.56
2022-10-18T04:30:40.018Z,8.49
2022-10-18T04:33:12.230Z,8.45
2022-10-18T04:35:44.445Z,8.43
2022-10-18T04:38:16.516Z,8.30
2022-10-18T04:40:48.788Z,8.27
2022-10-18T04:43:21.013Z,8.18
2022-10-18T04:45:53.248Z,8.17
2022-10-18T04:48:25.492Z,8.16
2022-10-18T04:50:57.626Z,8.19
2022-10-18T04:53:29.765Z,8.21
2022-10-18T04:56:01.936Z,8.26
2022-10-18T04:58:34.148Z,8.32
2022-10-18T05:01:09.198Z,8.35
2022-10-18T05:03:41.556Z,8.32
2022-10-18T05:06:13.691Z,8.43
2022-10-18T05:08:45.993Z,8.42
2022-10-18T05:11:18.135Z,8.52
2022-10-18T05:13:51.002Z,8.56
2022-10-18T05:16:23.431Z,8.61
2022-10-18T05:18:55.559Z,8.68
2022-10-18T05:21:27.726Z,8.81
2022-10-18T05:23:59.959Z,8.97
2022-10-18T05:26:32.095Z,9.09
2022-10-18T05:29:04.707Z,9.41
2022-10-18T05:31:37.009Z,9.69
2022-10-18T05:34:09.137Z,10.12
2022-10-18T05:36:41.653Z,10.50
2022-10-18T05:39:14.031Z,10.81
2022-10-18T05:41:46.271Z,11.05
2022-10-18T05:44:18.722Z,11.39
2022-10-18T05:46:51.215Z,11.68
2022-10-18T05:49:23.754Z,12.07
2022-10-18T05:51:56.187Z,12.43
2022-10-18T05:54:28.357Z,12.68
2022-10-18T05:57:00.526Z,12.92
2022-10-18T05:59:32.749Z,13.16
2022-10-18T06:02:05.402Z,13.41
2022-10-18T06:04:37.579Z,13.66
2022-10-18T06:07:12.683Z,13.84
2022-10-18T06:09:44.814Z,13.99
2022-10-18T06:12:17.014Z,14.17
2022-10-18T06:14:49.589Z,14.35
2022-10-18T06:17:21.898Z,14.54
2022-10-18T06:19:54.021Z,14.65
2022-10-18T06:22:26.149Z,14.74
2022-10-18T06:24:58.266Z,14.90
2022-10-18T06:27:31.865Z,15.11
2022-10-18T06:30:05.133Z,15.26
2022-10-18T06:32:37.362Z,15.40
2022-10-18T06:35:11.057Z,15.50
2022-10-18T06:40:20.670Z,15.72
2022-10-18T06:43:00.298Z,15.88
2022-10-18T06:45:38.076Z,16.01
2022-10-18T06:48:10.640Z,16.07
2022-10-18T06:50:42.936Z,16.09
2022-10-18T06:53:15.013Z,16.30
2022-10-18T06:55:47.823Z,16.54
2022-10-18T06:58:20.144Z,16.73
2022-10-18T07:00:52.508Z,16.88
2022-10-18T07:03:24.704Z,17.07
2022-10-18T07:06:01.448Z,17.23
2022-10-18T07:08:34.991Z,17.22
2022-10-18T07:11:08.368Z,17.09
2022-10-18T07:13:40.626Z,16.95
2022-10-18T07:16:18.242Z,16.83
2022-10-18T07:18:53.184Z,16.74
2022-10-18T07:21:26.779Z,16.67
2022-10-18T07:24:00.284Z,16.59
2022-10-18T07:26:34.303Z,16.54
2022-10-18T07:29:09.681Z,16.69
2022-10-18T07:31:41.869Z,16.95
2022-10-18T07:34:17.692Z,17.26
2022-10-18T07:36:48.171Z,17.51
2022-10-18T07:39:20.315Z,17.73
2022-10-18T07:41:52.412Z,17.94
2022-10-18T07:44:24.795Z,18.09
2022-10-18T07:46:57.243Z,18.30
2022-10-18T07:49:29.330Z,18.56
2022-10-18T07:52:01.528Z,18.77
2022-10-18T07:54:33.676Z,18.89
2022-10-18T07:57:06.821Z,19.08
2022-10-18T07:59:39.450Z,19.31
2022-10-18T08:02:12.229Z,19.54
2022-10-18T08:04:44.387Z,19.73
2022-10-18T08:07:16.470Z,19.95
2022-10-18T08:09:48.704Z,20.15
2022-10-18T08:12:20.847Z,20.33
2022-10-18T08:14:52.912Z,20.46
2022-10-18T08:17:24.971Z,20.57
2022-10-18T08:20:12.065Z,20.69
2022-10-18T08:22:55.471Z,20.85
2022-10-18T08:25:31.929Z,20.99
2022-10-18T08:28:04.084Z,21.12
2022-10-18T08:30:37.275Z,21.26
2022-10-18T08:33:09.429Z,21.35
2022-10-18T08:35:41.580Z,21.49
2022-10-18T08:38:18.015Z,21.61
2022-10-18T08:40:51.468Z,21.66
2022-10-18T08:46:15.255Z,21.86
2022-10-18T08:48:51.210Z,22.01
2022-10-18T08:51:46.527Z,22.13
2022-10-18T08:54:23.689Z,22.31
2022-10-18T08:57:01.904Z,22.43
2022-10-18T08:59:39.583Z,22.56
2022-10-18T09:02:25.079Z,22.70
2022-10-18T09:05:05.561Z,22.91
2022-10-18T09:08:15.617Z,23.12
2022-10-18T09:14:07.864Z,23.15
2022-10-18T09:16:47.011Z,23.38
2022-10-18T09:19:32.839Z,23.52
2022-10-18T09:22:09.710Z,23.58
2022-10-18T09:24:47.227Z,23.50
2022-10-18T09:27:21.468Z,23.65
2022-10-18T09:30:05.140Z,23.77
2022-10-18T09:32:51.801Z,23.78
2022-10-18T09:35:27.337Z,23.76
2022-10-18T09:38:06.828Z,23.84
2022-10-18T09:40:47.174Z,23.89
2022-10-18T09:43:24.228Z,23.91
2022-10-18T09:45:58.033Z,23.81
2022-10-18T09:48:38.354Z,23.79
2022-10-18T09:51:13.747Z,23.89
2022-10-18T09:53:58.109Z,23.74
2022-10-18T09:56:39.308Z,23.46
2022-10-18T09:59:33.673Z,23.25
2022-10-18T10:02:06.670Z,23.16
2022-10-18T10:04:38.768Z,23.23
2022-10-18T10:07:15.995Z,23.11
2022-10-18T10:09:50.190Z,22.98
2022-10-18T10:12:33.648Z,22.98
2022-10-18T10:15:20.554Z,23.04
2022-10-18T10:18:01.949Z,23.22
2022-10-18T10:20:38.305Z,23.35
2022-10-18T10:25:55.934Z,23.65
2022-10-18T10:28:32.488Z,23.56
2022-10-18T10:31:27.956Z,23.61
2022-10-18T10:34:05.945Z,23.52
2022-10-18T10:36:50.090Z,23.17
2022-10-18T10:39:24.371Z,23.08
2022-10-18T10:41:58.368Z,23.23
2022-10-18T10:44:33.568Z,23.37
2022-10-18T10:47:06.006Z,23.36
2022-10-18T10:49:48.496Z,23.22
2022-10-18T10:52:36.555Z,23.01
2022-10-18T10:55:34.767Z,23.00
2022-10-18T10:58:18.530Z,23.12
2022-10-18T11:00:50.705Z,23.11
2022-10-18T11:03:29.457Z,22.82
2022-10-18T11:06:02.324Z,22.56
2022-10-18T11:08:39.720Z,22.31
2022-10-18T11:11:23.083Z,22.18
2022-10-18T11:17:08.157Z,21.84
2022-10-18T11:19:51.345Z,21.82
2022-10-18T11:22:26.872Z,21.83
2022-10-18T11:24:58.960Z,21.79
2022-10-18T11:27:36.220Z,21.70
2022-10-18T11:30:21.184Z,21.63
2022-10-18T11:33:04.331Z,21.57
2022-10-18T11:35:47.010Z,21.43
2022-10-18T11:38:31.072Z,21.22
2022-10-18T11:41:22.648Z,21.11
2022-10-18T11:44:03.556Z,21.07
2022-10-18T11:46:47.530Z,21.05
2022-10-18T11:49:46.295Z,21.01
2022-10-18T11:52:28.797Z,20.84
2022-10-18T11:55:30.317Z,20.69
2022-10-18T11:58:16.048Z,20.65
2022-10-18T12:00:52.447Z,20.59
2022-10-18T12:03:35.320Z,20.41
2022-10-18T12:06:13.593Z,20.29
2022-10-18T12:08:49.350Z,20.25
2022-10-18T12:11:25.856Z,20.11
2022-10-18T12:14:00.872Z,20.03
2022-10-18T12:16:51.062Z,20.05
2022-10-18T12:19:27.569Z,20.08
2022-10-18T12:22:04.134Z,20.13
2022-10-18T12:24:37.228Z,20.11
2022-10-18T12:27:12.968Z,20.13
2022-10-18T12:29:52.285Z,20.15
2022-10-18T12:32:31.231Z,20.16
2022-10-18T12:35:08.437Z,20.15
2022-10-18T12:38:00.699Z,20.13
2022-10-18T12:40:39.182Z,20.05
2022-10-18T12:43:22.828Z,19.97
2022-10-18T12:45:57.469Z,19.90
2022-10-18T12:48:38.771Z,19.88
2022-10-18T12:51:18.515Z,19.89
2022-10-18T12:53:55.855Z,19.88
2022-10-18T12:56:43.460Z,19.86
2022-10-18T12:59:52.314Z,19.76
2022-10-18T13:02:32.889Z,19.72
2022-10-18T13:05:55.638Z,19.66
2022-10-18T13:08:43.371Z,19.55
2022-10-18T13:11:36.040Z,19.45
2022-10-18T13:14:36.317Z,19.39
2022-10-18T13:17:22.729Z,19.34
2022-10-18T13:20:24.603Z,19.30
2022-10-18T13:23:09.356Z,19.33
2022-10-18T13:25:59.151Z,19.34
2022-10-18T13:28:38.838Z,19.36
2022-10-18T13:31:20.788Z,19.37
2022-10-18T13:33:55.466Z,19.35
2022-10-18T13:36:33.624Z,19.31
2022-10-18T13:39:19.812Z,19.28
2022-10-18T13:42:28.700Z,19.27
2022-10-18T13:45:27.539Z,19.27
2022-10-18T13:48:20.375Z,19.27
2022-10-18T13:50:52.961Z,19.27
2022-10-18T13:53:47.034Z,19.26
2022-10-18T13:56:45.763Z,19.24
2022-10-18T13:59:40.541Z,19.19
2022-10-18T14:02:52.353Z,19.17
2022-10-18T14:05:47.048Z,19.11
2022-10-18T14:08:26.185Z,19.09
2022-10-18T14:11:07.560Z,19.08
2022-10-18T14:13:48.431Z,19.07
2022-10-18T14:16:40.137Z,19.06
2022-10-18T14:19:22.647Z,19.06
2022-10-18T14:21:59.567Z,19.05
2022-10-18T14:24:32.811Z,19.04
2022-10-18T14:27:17.983Z,19.02
2022-10-18T14:29:51.578Z,18.99
2022-10-18T14:32:28.757Z,18.97
2022-10-18T14:35:30.634Z,18.95
2022-10-18T14:37:55.772Z,18.89
2022-10-18T14:40:38.195Z,18.83
2022-10-18T14:43:15.183Z,18.81
2022-10-18T14:45:47.640Z,18.77
2022-10-18T14:48:23.820Z,18.73
2022-10-18T14:51:01.061Z,18.67
2022-10-18T14:53:38.741Z,18.62
2022-10-18T14:56:21.055Z,18.56
2022-10-18T14:58:54.425Z,18.50
2022-10-18T15:01:30.763Z,18.48
2022-10-18T15:04:06.338Z,18.45
2022-10-18T15:06:42.899Z,18.41
2022-10-18T15:09:22.011Z,18.33
2022-10-18T15:11:57.882Z,18.25
2022-10-18T15:14:31.920Z,18.18
2022-10-18T15:17:09.730Z,18.11
2022-10-18T15:19:54.314Z,18.06
2022-10-18T15:22:32.425Z,18.05
2022-10-18T15:25:18.215Z,17.99
2022-10-18T15:27:52.671Z,17.92
2022-10-18T15:30:29.024Z,17.85
2022-10-18T15:33:02.884Z,17.78
2022-10-18T15:35:37.088Z,17.71
2022-10-18T15:38:25.849Z,17.63
2022-10-18T15:40:58.727Z,17.52
2022-10-18T15:43:39.849Z,17.40
2022-10-18T15:46:33.330Z,17.30
2022-10-18T15:49:52.581Z,17.23
2022-10-18T15:52:44.485Z,17.15
2022-10-18T15:55:57.042Z,17.09
2022-10-18T15:58:32.100Z,16.97
2022-10-18T16:01:05.234Z,16.91
2022-10-18T16:03:39.827Z,16.87
2022-10-18T16:06:15.995Z,16.81
2022-10-18T16:08:51.929Z,16.74
2022-10-18T16:11:26.385Z,16.68
2022-10-18T16:14:00.439Z,16.62
2022-10-18T16:16:33.002Z,16.58
2022-10-18T16:19:05.734Z,16.52
2022-10-18T16:21:39.945Z,16.45
2022-10-18T16:24:12.095Z,16.40
2022-10-18T16:26:44.343Z,16.34
2022-10-18T16:29:19.477Z,16.26
2022-10-18T16:31:53.688Z,16.19
2022-10-18T16:34:27.789Z,16.11
2022-10-18T16:36:59.981Z,16.01
2022-10-18T16:39:35.129Z,15.88
2022-10-18T16:42:07.209Z,15.84
2022-10-18T16:44:39.244Z,15.76
2022-10-18T16:47:12.913Z,15.67
2022-10-18T16:49:45.489Z,15.60
2022-10-18T16:52:17.493Z,15.53
2022-10-18T16:54:49.470Z,15.46
2022-10-18T16:57:21.541Z,15.41
2022-10-18T16:59:53.601Z,15.35
2022-10-18T17:02:25.851Z,15.30
2022-10-18T17:04:57.906Z,15.23
2022-10-18T17:07:30.109Z,15.19
2022-10-18T17:10:02.168Z,15.15
2022-10-18T17:12:34.597Z,15.10
2022-10-18T17:15:08.697Z,15.07
2022-10-18T17:17:41.235Z,15.03
2022-10-18T17:20:20.478Z,14.97
2022-10-18T17:22:53.175Z,14.91
2022-10-18T17:25:25.315Z,14.85
2022-10-18T17:27:57.412Z,14.79
2022-10-18T17:30:29.445Z,14.63
2022-10-18T17:33:01.948Z,14.58
2022-10-18T17:35:34.676Z,14.57
2022-10-18T17:38:07.838Z,14.51
2022-10-18T17:40:43.003Z,14.45
2022-10-18T17:43:15.140Z,14.39
2022-10-18T17:45:51.595Z,14.33
2022-10-18T17:48:24.620Z,14.29
2022-10-18T17:50:57.250Z,14.23
2022-10-18T17:53:30.895Z,14.20
2022-10-18T17:56:04.576Z,14.16
2022-10-18T17:58:37.373Z,14.13
2022-10-18T18:01:15.068Z,14.10
2022-10-18T18:03:48.802Z,14.05
2022-10-18T18:06:23.558Z,14.02
2022-10-18T18:08:56.313Z,13.98
2022-10-18T18:11:28.861Z,13.94
2022-10-18T18:14:01.284Z,13.90
2022-10-18T18:16:33.395Z,13.85
2022-10-18T18:19:09.700Z,13.81
2022-10-18T18:21:46.309Z,13.77
2022-10-18T18:24:24.587Z,13.76
2022-10-18T18:26:57.586Z,13.73
2022-10-18T18:29:30.520Z,13.69
2022-10-18T18:32:03.536Z,13.65
2022-10-18T18:34:36.739Z,13.62
2022-10-18T18:37:09.364Z,13.57
2022-10-18T18:39:41.630Z,13.54
2022-10-18T18:42:13.753Z,13.50
2022-10-18T18:44:46.173Z,13.45
2022-10-18T18:47:21.888Z,13.41
2022-10-18T18:49:54.293Z,13.38
2022-10-18T18:52:26.787Z,13.35
2022-10-18T18:54:58.861Z,13.30
2022-10-18T18:57:31.221Z,13.27
2022-10-18T19:00:03.575Z,13.24
2022-10-18T19:02:36.068Z,13.21
2022-10-18T19:05:08.812Z,13.18
2022-10-18T19:07:41.725Z,13.16
2022-10-18T19:10:13.960Z,13.12
2022-10-18T19:12:46.151Z,13.11
2022-10-18T19:15:18.493Z,13.09
2022-10-18T19:17:51.195Z,13.04
2022-10-18T19:20:23.485Z,13.00
2022-10-18T19:22:55.633Z,12.95
2022-10-18T19:25:27.771Z,12.90
2022-10-18T19:27:59.924Z,12.86
2022-10-18T19:30:32.084Z,12.79
2022-10-18T19:33:04.851Z,12.76
2022-10-18T19:35:37.451Z,12.72
2022-10-18T19:38:09.562Z,12.69
2022-10-18T19:40:41.862Z,12.66
2022-10-18T19:43:14.026Z,12.64
2022-10-18T19:45:46.110Z,12.63
2022-10-18T19:48:18.388Z,12.59
2022-10-18T19:50:50.926Z,12.57
2022-10-18T19:53:23.020Z,12.55
2022-10-18T19:56:00.486Z,12.52
2022-10-18T19:58:32.941Z,12.49
2022-10-18T20:01:05.082Z,12.47
2022-10-18T20:03:38.031Z,12.45
2022-10-18T20:06:10.508Z,12.35
2022-10-18T20:08:43.535Z,12.37
2022-10-18T20:11:17.741Z,12.35
2022-10-18T20:13:50.715Z,12.33
2022-10-18T20:16:28.211Z,12.30
2022-10-18T20:19:02.787Z,12.27
2022-10-18T20:21:36.677Z,12.24
2022-10-18T20:24:10.077Z,12.23
2022-10-18T20:26:43.942Z,12.22
2022-10-18T20:29:16.141Z,12.19
2022-10-18T20:31:48.665Z,12.16
2022-10-18T20:34:25.754Z,12.14
2022-10-18T20:36:58.470Z,12.13
2022-10-18T20:39:30.588Z,12.12
2022-10-18T20:42:02.967Z,12.08
2022-10-18T20:44:34.986Z,12.07
2022-10-18T20:47:06.968Z,12.04
2022-10-18T20:49:39.459Z,12.02
2022-10-18T20:52:12.270Z,12.01
2022-10-18T20:54:44.254Z,12.00
2022-10-18T20:57:16.290Z,11.96
2022-10-18T20:59:49.510Z,11.92
2022-10-18T21:02:21.555Z,11.89
2022-10-18T21:04:53.586Z,11.87
2022-10-18T21:07:25.684Z,11.84
2022-10-18T21:09:57.947Z,11.82
2022-10-18T21:12:30.272Z,11.86
2022-10-18T21:15:02.753Z,11.90
2022-10-18T21:17:34.840Z,11.90
2022-10-18T21:20:08.783Z,11.86
2022-10-18T21:22:40.732Z,11.80
2022-10-18T21:25:13.173Z,11.79
2022-10-18T21:27:45.204Z,11.73
2022-10-18T21:30:17.364Z,11.72
2022-10-18T21:32:52.567Z,11.75
2022-10-18T21:35:24.636Z,11.79
2022-10-18T21:37:56.743Z,11.78
2022-10-18T21:40:28.802Z,11.74
2022-10-18T21:43:00.859Z,11.70
2022-10-18T21:45:33.169Z,11.62
2022-10-18T21:48:05.674Z,11.52
2022-10-18T21:50:40.841Z,11.47
2022-10-18T21:53:13.815Z,11.47
2022-10-18T21:55:45.898Z,11.43
2022-10-18T21:58:17.962Z,11.45
2022-10-18T22:00:50.154Z,11.45
2022-10-18T22:03:23.492Z,11.42
2022-10-18T22:06:03.183Z,11.37
2022-10-18T22:08:35.663Z,11.36
2022-10-18T22:11:07.850Z,11.34
2022-10-18T22:13:40.468Z,11.31
2022-10-18T22:16:15.486Z,11.31
2022-10-18T22:18:50.080Z,11.31
2022-10-18T22:21:23.414Z,11.33
2022-10-18T22:23:58.098Z,11.34
2022-10-18T22:26:31.694Z,11.33
2022-10-18T22:29:05.706Z,11.31
2022-10-18T22:31:40.418Z,11.30
2022-10-18T22:34:16.705Z,11.29
2022-10-18T22:36:48.870Z,11.27
2022-10-18T22:39:21.431Z,11.23
2022-10-18T22:41:56.444Z,11.18
2022-10-18T22:44:28.525Z,11.11
2022-10-18T22:47:00.675Z,11.07
2022-10-18T22:49:32.678Z,11.03
2022-10-18T22:52:05.086Z,11.01
2022-10-18T22:54:37.133Z,11.00
2022-10-18T22:57:09.160Z,11.00
2022-10-18T22:59:41.528Z,11.00
2022-10-18T23:02:13.544Z,10.97
2022-10-18T23:04:45.860Z,10.93
2022-10-18T23:07:17.945Z,10.87
2022-10-18T23:09:50.068Z,10.79
2022-10-18T23:12:22.123Z,10.75
2022-10-18T23:14:54.168Z,10.72
2022-10-18T23:17:26.323Z,10.67
2022-10-18T23:19:58.852Z,10.64
2022-10-18T23:22:31.199Z,10.60
2022-10-18T23:25:03.543Z,10.58
2022-10-18T23:27:35.623Z,10.57
2022-10-18T23:30:09.718Z,10.49
2022-10-18T23:32:42.390Z,10.42
2022-10-18T23:35:14.876Z,10.38
2022-10-18T23:37:47.859Z,10.37
2022-10-18T23:40:20.535Z,10.36
2022-10-18T23:42:52.564Z,10.33
2022-10-18T23:45:24.633Z,10.26
2022-10-18T23:47:56.777Z,10.28
2022-10-18T23:50:28.874Z,10.28
2022-10-18T23:53:01.059Z,10.27
2022-10-18T23:55:33.175Z,10.23
2022-10-18T23:58:05.714Z,10.19
